sensor_id;sensor_type;location;lat;lon;timestamp;pressure;altitude;pressure_sealevel;temperature;humidity
52993;BME280;38875;52.216;21.040;2023-01-26T08:11:49;144999.88;;;0.40;100.00
52993;BME280;38875;52.216;21.040;2023-01-26T08:14:15;145007.41;;;0.43;100.00
52993;BME280;38875;52.216;21.040;2023-01-26T08:16:41;145004.91;;;0.42;100.00
52993;BME280;38875;52.216;21.040;2023-01-26T08:19:07;145012.44;;;0.45;100.00
52993;BME280;38875;52.216;21.040;2023-01-26T08:21:32;145074.19;;;0.70;100.00
52993;BME280;38875;52.216;21.040;2023-01-26T08:23:58;145062.84;;;0.66;100.00
52993;BME280;38875;52.216;21.040;2023-01-26T08:26:26;145083.00;;;0.74;100.00
52993;BME280;38875;52.216;21.040;2023-01-26T08:28:52;145103.13;;;0.82;100.00
52993;BME280;38875;52.216;21.040;2023-01-26T08:31:19;145052.78;;;0.61;100.00
52993;BME280;38875;52.216;21.040;2023-01-26T08:33:49;145065.38;;;0.67;100.00
52993;BME280;38875;52.216;21.040;2023-01-26T08:36:16;145066.63;;;0.67;100.00
52993;BME280;38875;52.216;21.040;2023-01-26T08:38:43;145047.75;;;0.59;100.00
52993;BME280;38875;52.216;21.040;2023-01-26T08:41:10;144982.25;;;0.33;100.00
52993;BME280;38875;52.216;21.040;2023-01-26T08:43:36;144998.59;;;0.40;100.00
52993;BME280;38875;52.216;21.040;2023-01-26T08:46:02;145025.03;;;0.50;100.00
52993;BME280;38875;52.216;21.040;2023-01-26T08:48:29;145030.06;;;0.52;100.00
52993;BME280;38875;52.216;21.040;2023-01-26T08:50:57;145103.13;;;0.82;100.00
52993;BME280;38875;52.216;21.040;2023-01-26T08:53:24;145080.47;;;0.73;100.00
52993;BME280;38875;52.216;21.040;2023-01-26T08:55:50;145086.78;;;0.75;100.00
52993;BME280;38875;52.216;21.040;2023-01-26T08:58:17;144992.31;;;0.37;100.00
52993;BME280;38875;52.216;21.040;2023-01-26T09:00:44;145012.44;;;0.45;100.00
52993;BME280;38875;52.216;21.040;2023-01-26T09:03:10;145025.03;;;0.50;100.00
52993;BME280;38875;52.216;21.040;2023-01-26T09:05:38;145109.44;;;0.84;100.00
52993;BME280;38875;52.216;21.040;2023-01-26T09:08:06;145040.16;;;0.56;100.00
52993;BME280;38875;52.216;21.040;2023-01-26T09:10:32;145045.22;;;0.58;100.00
52993;BME280;38875;52.216;21.040;2023-01-26T09:12:59;145031.34;;;0.53;100.00
52993;BME280;38875;52.216;21.040;2023-01-26T09:15:25;145021.28;;;0.49;100.00
52993;BME280;38875;52.216;21.040;2023-01-26T09:17:51;145026.31;;;0.51;100.00
52993;BME280;38875;52.216;21.040;2023-01-26T09:20:17;145035.13;;;0.54;100.00
52993;BME280;38875;52.216;21.040;2023-01-26T09:22:44;145050.25;;;0.60;100.00
52993;BME280;38875;52.216;21.040;2023-01-26T09:25:11;145062.84;;;0.66;100.00
52993;BME280;38875;52.216;21.040;2023-01-26T09:27:36;145088.03;;;0.76;100.00
52993;BME280;38875;52.216;21.040;2023-01-26T09:30:03;145072.94;;;0.70;100.00
52993;BME280;38875;52.216;21.040;2023-01-26T09:32:30;145101.88;;;0.81;100.00
52993;BME280;38875;52.216;21.040;2023-01-26T09:34:56;145050.25;;;0.60;100.00
52993;BME280;38875;52.216;21.040;2023-01-26T09:37:22;145025.03;;;0.50;100.00
52993;BME280;38875;52.216;21.040;2023-01-26T09:39:48;145047.75;;;0.59;100.00
52993;BME280;38875;52.216;21.040;2023-01-26T09:45:59;145026.31;;;0.51;100.00
52993;BME280;38875;52.216;21.040;2023-01-26T09:51:14;145094.31;;;0.78;100.00
52993;BME280;38875;52.216;21.040;2023-01-26T09:53:54;145115.78;;;0.87;100.00
52993;BME280;38875;52.216;21.040;2023-01-26T09:56:25;145110.69;;;0.85;100.00
52993;BME280;38875;52.216;21.040;2023-01-26T09:59:05;145105.66;;;0.83;100.00
52993;BME280;38875;52.216;21.040;2023-01-26T10:01:43;145060.34;;;0.65;100.00
52993;BME280;38875;52.216;21.040;2023-01-26T10:04:32;145086.78;;;0.75;100.00
52993;BME280;38875;52.216;21.040;2023-01-26T10:07:06;145081.75;;;0.73;100.00
52993;BME280;38875;52.216;21.040;2023-01-26T10:09:36;145119.56;;;0.88;100.00
52993;BME280;38875;52.216;21.040;2023-01-26T10:12:07;145159.84;;;1.05;100.00
52993;BME280;38875;52.216;21.040;2023-01-26T10:14:39;145209.00;;;1.24;100.00
52993;BME280;38875;52.216;21.040;2023-01-26T10:17:40;145214.06;;;1.27;100.00
52993;BME280;38875;52.216;21.040;2023-01-26T10:20:08;145196.41;;;1.19;100.00
52993;BME280;38875;52.216;21.040;2023-01-26T10:22:48;145105.66;;;0.83;100.00
52993;BME280;38875;52.216;21.040;2023-01-26T10:25:42;145139.69;;;0.97;100.00
52993;BME280;38875;52.216;21.040;2023-01-26T10:28:27;145151.03;;;1.01;100.00
52993;BME280;38875;52.216;21.040;2023-01-26T10:30:54;145142.22;;;0.98;100.00
52993;BME280;38875;52.216;21.040;2023-01-26T10:35:45;145129.63;;;0.92;100.00
52993;BME280;38875;52.216;21.040;2023-01-26T10:41:19;145142.22;;;0.98;100.00
52993;BME280;38875;52.216;21.040;2023-01-26T10:43:53;145153.56;;;1.02;100.00
52993;BME280;38875;52.216;21.040;2023-01-26T10:46:27;145123.34;;;0.90;100.00
52993;BME280;38875;52.216;21.040;2023-01-26T10:48:55;145176.22;;;1.11;100.00
52993;BME280;38875;52.216;21.040;2023-01-26T10:51:27;145127.13;;;0.91;100.00
52993;BME280;38875;52.216;21.040;2023-01-26T10:56:46;145071.66;;;0.69;100.00
52993;BME280;38875;52.216;21.040;2023-01-26T10:59:14;145080.47;;;0.73;100.00
52993;BME280;38875;52.216;21.040;2023-01-26T11:02:00;145144.75;;;0.99;100.00
52993;BME280;38875;52.216;21.040;2023-01-26T11:04:27;145120.81;;;0.89;100.00
52993;BME280;38875;52.216;21.040;2023-01-26T11:06:52;145216.56;;;1.28;100.00
52993;BME280;38875;52.216;21.040;2023-01-26T11:09:25;145236.72;;;1.36;100.00
52993;BME280;38875;52.216;21.040;2023-01-26T11:12:02;145105.66;;;0.83;100.00
52993;BME280;38875;52.216;21.040;2023-01-26T11:14:30;145080.47;;;0.73;100.00
52993;BME280;38875;52.216;21.040;2023-01-26T11:22:04;145163.63;;;1.06;100.00
52993;BME280;38875;52.216;21.040;2023-01-26T11:24:42;145110.69;;;0.85;100.00
52993;BME280;38875;52.216;21.040;2023-01-26T11:32:50;145108.19;;;0.84;100.00
52993;BME280;38875;52.216;21.040;2023-01-26T11:35:36;145166.16;;;1.07;100.00
52993;BME280;38875;52.216;21.040;2023-01-26T11:40:52;145151.03;;;1.01;100.00
52993;BME280;38875;52.216;21.040;2023-01-26T11:43:48;145094.31;;;0.78;100.00
52993;BME280;38875;52.216;21.040;2023-01-26T11:46:40;145127.13;;;0.91;100.00
52993;BME280;38875;52.216;21.040;2023-01-26T11:52:07;145178.75;;;1.12;100.00
52993;BME280;38875;52.216;21.040;2023-01-26T11:55:02;145192.63;;;1.18;100.00
52993;BME280;38875;52.216;21.040;2023-01-26T12:00:42;145186.28;;;1.15;100.00
52993;BME280;38875;52.216;21.040;2023-01-26T12:03:21;145227.91;;;1.32;100.00
52993;BME280;38875;52.216;21.040;2023-01-26T12:05:53;145188.88;;;1.16;100.00
52993;BME280;38875;52.216;21.040;2023-01-26T12:08:35;145201.47;;;1.21;100.00
52993;BME280;38875;52.216;21.040;2023-01-26T12:11:09;145123.34;;;0.90;100.00
52993;BME280;38875;52.216;21.040;2023-01-26T12:16:43;145176.22;;;1.11;100.00
52993;BME280;38875;52.216;21.040;2023-01-26T12:21:48;145221.59;;;1.30;100.00
52993;BME280;38875;52.216;21.040;2023-01-26T12:24:32;145178.75;;;1.12;100.00
52993;BME280;38875;52.216;21.040;2023-01-26T12:27:04;145154.81;;;1.03;100.00
52993;BME280;38875;52.216;21.040;2023-01-26T12:29:48;145163.63;;;1.06;100.00
52993;BME280;38875;52.216;21.040;2023-01-26T12:32:16;145207.75;;;1.24;100.00
52993;BME280;38875;52.216;21.040;2023-01-26T12:34:42;145125.84;;;0.91;100.00
52993;BME280;38875;52.216;21.040;2023-01-26T12:42:41;145151.03;;;1.01;100.00
52993;BME280;38875;52.216;21.040;2023-01-26T12:45:31;145118.28;;;0.88;100.00
52993;BME280;38875;52.216;21.040;2023-01-26T12:48:20;145119.56;;;0.88;100.00
52993;BME280;38875;52.216;21.040;2023-01-26T12:51:02;145186.28;;;1.15;100.00
52993;BME280;38875;52.216;21.040;2023-01-26T12:53:33;145135.94;;;0.95;100.00
52993;BME280;38875;52.216;21.040;2023-01-26T12:56:16;145137.19;;;0.96;100.00
52993;BME280;38875;52.216;21.040;2023-01-26T12:58:47;145138.44;;;0.96;100.00
52993;BME280;38875;52.216;21.040;2023-01-26T13:01:17;145177.47;;;1.12;100.00
52993;BME280;38875;52.216;21.040;2023-01-26T13:06:21;145144.75;;;0.99;100.00
52993;BME280;38875;52.216;21.040;2023-01-26T13:11:50;145140.97;;;0.97;100.00
52993;BME280;38875;52.216;21.040;2023-01-26T13:14:37;145128.38;;;0.92;100.00
52993;BME280;38875;52.216;21.040;2023-01-26T13:19:53;145099.38;;;0.80;100.00
52993;BME280;38875;52.216;21.040;2023-01-26T13:33:00;145123.34;;;0.90;100.00
52993;BME280;38875;52.216;21.040;2023-01-26T13:35:28;145106.91;;;0.83;100.00
52993;BME280;38875;52.216;21.040;2023-01-26T13:40:35;145021.28;;;0.49;100.00
52993;BME280;38875;52.216;21.040;2023-01-26T13:48:51;145105.66;;;0.83;100.00
52993;BME280;38875;52.216;21.040;2023-01-26T13:51:35;145060.34;;;0.65;100.00
52993;BME280;38875;52.216;21.040;2023-01-26T13:59:17;145032.59;;;0.53;100.00
52993;BME280;38875;52.216;21.040;2023-01-26T14:01:49;145014.97;;;0.46;100.00
52993;BME280;38875;52.216;21.040;2023-01-26T14:06:46;145032.59;;;0.53;100.00
52993;BME280;38875;52.216;21.040;2023-01-26T14:09:13;145056.56;;;0.63;100.00
52993;BME280;38875;52.216;21.040;2023-01-26T14:11:42;145069.16;;;0.68;100.00
52993;BME280;38875;52.216;21.040;2023-01-26T14:14:35;145065.38;;;0.67;100.00
52993;BME280;38875;52.216;21.040;2023-01-26T14:17:23;145050.25;;;0.60;100.00
52993;BME280;38875;52.216;21.040;2023-01-26T14:19:50;145004.91;;;0.42;100.00
52993;BME280;38875;52.216;21.040;2023-01-26T14:22:16;145002.38;;;0.41;100.00
52993;BME280;38875;52.216;21.040;2023-01-26T14:24:47;145002.38;;;0.41;100.00
52993;BME280;38875;52.216;21.040;2023-01-26T14:27:35;145017.50;;;0.47;100.00
52993;BME280;38875;52.216;21.040;2023-01-26T14:30:24;144991.06;;;0.37;100.00
52993;BME280;38875;52.216;21.040;2023-01-26T14:33:00;144994.84;;;0.38;100.00
52993;BME280;38875;52.216;21.040;2023-01-26T14:35:28;145030.06;;;0.52;100.00
52993;BME280;38875;52.216;21.040;2023-01-26T14:38:13;145052.78;;;0.61;100.00
52993;BME280;38875;52.216;21.040;2023-01-26T14:40:43;145035.13;;;0.54;100.00
52993;BME280;38875;52.216;21.040;2023-01-26T14:43:10;145016.22;;;0.47;100.00
52993;BME280;38875;52.216;21.040;2023-01-26T14:45:38;145001.13;;;0.41;100.00
52993;BME280;38875;52.216;21.040;2023-01-26T14:48:11;144968.34;;;0.27;100.00
52993;BME280;38875;52.216;21.040;2023-01-26T14:50:39;144984.75;;;0.34;100.00
52993;BME280;38875;52.216;21.040;2023-01-26T14:53:21;144988.53;;;0.36;100.00
52993;BME280;38875;52.216;21.040;2023-01-26T14:55:48;144997.34;;;0.39;100.00
52993;BME280;38875;52.216;21.040;2023-01-26T14:58:20;145002.38;;;0.41;100.00
52993;BME280;38875;52.216;21.040;2023-01-26T15:00:48;144993.56;;;0.38;100.00
52993;BME280;38875;52.216;21.040;2023-01-26T15:03:31;145011.19;;;0.45;100.00
52993;BME280;38875;52.216;21.040;2023-01-26T15:08:40;145045.22;;;0.58;100.00
52993;BME280;38875;52.216;21.040;2023-01-26T15:11:06;145042.66;;;0.57;100.00
52993;BME280;38875;52.216;21.040;2023-01-26T15:13:53;145014.97;;;0.46;100.00
52993;BME280;38875;52.216;21.040;2023-01-26T15:16:21;144999.88;;;0.40;100.00
52993;BME280;38875;52.216;21.040;2023-01-26T15:19:04;145009.94;;;0.44;100.00
52993;BME280;38875;52.216;21.040;2023-01-26T15:21:34;145049.00;;;0.60;100.00
52993;BME280;38875;52.216;21.040;2023-01-26T15:24:05;145037.63;;;0.55;100.00
52993;BME280;38875;52.216;21.040;2023-01-26T15:26:35;145040.16;;;0.56;100.00
52993;BME280;38875;52.216;21.040;2023-01-26T15:29:04;145067.88;;;0.68;100.00
52993;BME280;38875;52.216;21.040;2023-01-26T15:31:34;145094.31;;;0.78;100.00
52993;BME280;38875;52.216;21.040;2023-01-26T15:34:01;145070.41;;;0.69;100.00
52993;BME280;38875;52.216;21.040;2023-01-26T15:39:14;145004.91;;;0.42;100.00
52993;BME280;38875;52.216;21.040;2023-01-26T15:41:42;145012.44;;;0.45;100.00
52993;BME280;38875;52.216;21.040;2023-01-26T15:44:18;144987.28;;;0.35;100.00
52993;BME280;38875;52.216;21.040;2023-01-26T15:46:46;144989.81;;;0.36;100.00
52993;BME280;38875;52.216;21.040;2023-01-26T15:49:12;144978.47;;;0.32;100.00
52993;BME280;38875;52.216;21.040;2023-01-26T15:51:38;144978.47;;;0.32;100.00
52993;BME280;38875;52.216;21.040;2023-01-26T15:54:04;144979.72;;;0.32;100.00
52993;BME280;38875;52.216;21.040;2023-01-26T15:56:30;144979.72;;;0.32;100.00
52993;BME280;38875;52.216;21.040;2023-01-26T15:58:56;144991.06;;;0.37;100.00
52993;BME280;38875;52.216;21.040;2023-01-26T16:01:23;144982.25;;;0.33;100.00
52993;BME280;38875;52.216;21.040;2023-01-26T16:03:49;144982.25;;;0.33;100.00
52993;BME280;38875;52.216;21.040;2023-01-26T16:06:20;144969.63;;;0.28;100.00
52993;BME280;38875;52.216;21.040;2023-01-26T16:08:47;144984.75;;;0.34;100.00
52993;BME280;38875;52.216;21.040;2023-01-26T16:11:14;144964.59;;;0.26;100.00
52993;BME280;38875;52.216;21.040;2023-01-26T16:13:39;144977.22;;;0.31;100.00
52993;BME280;38875;52.216;21.040;2023-01-26T16:16:09;144999.88;;;0.40;100.00
52993;BME280;38875;52.216;21.040;2023-01-26T16:18:35;144982.25;;;0.33;100.00
52993;BME280;38875;52.216;21.040;2023-01-26T16:21:12;144964.59;;;0.26;100.00
52993;BME280;38875;52.216;21.040;2023-01-26T16:23:40;144965.84;;;0.26;100.00
52993;BME280;38875;52.216;21.040;2023-01-26T16:26:09;144977.22;;;0.31;100.00
52993;BME280;38875;52.216;21.040;2023-01-26T16:28:35;144992.31;;;0.37;100.00
52993;BME280;38875;52.216;21.040;2023-01-26T16:31:01;145011.19;;;0.45;100.00
